createdAt,value
2016-09-10T00:00:02.188Z,23.94
2016-09-10T00:00:34.604Z,23.92
2016-09-10T00:01:07.031Z,23.99
2016-09-10T00:01:40.569Z,23.99
2016-09-10T00:02:12.880Z,23.92
2016-09-10T00:02:45.222Z,23.93
2016-09-10T00:03:17.520Z,23.96
2016-09-10T00:03:49.832Z,23.96
2016-09-10T00:04:22.148Z,23.93
2016-09-10T00:04:54.479Z,23.96
2016-09-10T00:05:26.801Z,24
2016-09-10T00:05:59.124Z,24.02
2016-09-10T00:06:31.433Z,23.93
2016-09-10T00:07:03.762Z,23.93
2016-09-10T00:07:36.090Z,23.96
2016-09-10T00:08:08.455Z,24
2016-09-10T00:08:40.788Z,23.9
2016-09-10T00:09:13.114Z,23.96
2016-09-10T00:09:45.442Z,23.96
2016-09-10T00:10:17.787Z,23.92
2016-09-10T00:10:50.124Z,23.94
2016-09-10T00:11:22.456Z,23.89
2016-09-10T00:11:54.794Z,23.97
2016-09-10T00:12:27.107Z,23.9
2016-09-10T00:12:59.421Z,23.93
2016-09-10T00:13:32.524Z,23.92
2016-09-10T00:14:05.066Z,23.9
2016-09-10T00:14:37.482Z,23.87
2016-09-10T00:15:09.800Z,23.96
2016-09-10T00:15:42.160Z,23.81
2016-09-10T00:16:14.761Z,23.82
2016-09-10T00:16:47.091Z,23.85
2016-09-10T00:17:19.401Z,23.89
2016-09-10T00:17:52.023Z,23.85
2016-09-10T00:18:24.516Z,23.77
2016-09-10T00:18:56.856Z,23.79
2016-09-10T00:19:29.366Z,23.77
2016-09-10T00:20:01.773Z,23.84
2016-09-10T00:20:34.535Z,23.81
2016-09-10T00:21:06.875Z,23.85
2016-09-10T00:21:40.025Z,23.84
2016-09-10T00:22:12.353Z,23.82
2016-09-10T00:22:44.707Z,23.81
2016-09-10T00:23:17.133Z,23.84
2016-09-10T00:23:49.478Z,23.85
2016-09-10T00:24:21.801Z,23.82
2016-09-10T00:24:54.094Z,23.85
2016-09-10T00:25:26.431Z,23.78
2016-09-10T00:25:58.784Z,23.85
2016-09-10T00:26:31.251Z,23.75
2016-09-10T00:27:03.626Z,23.82
2016-09-10T00:27:35.972Z,23.84
2016-09-10T00:28:08.487Z,23.82
2016-09-10T00:28:40.947Z,23.72
2016-09-10T00:29:13.277Z,23.74
2016-09-10T00:29:45.645Z,23.75
2016-09-10T00:30:17.967Z,23.71
2016-09-10T00:30:50.322Z,23.74
2016-09-10T00:31:22.638Z,23.74
2016-09-10T00:31:54.999Z,23.74
2016-09-10T00:32:27.323Z,23.77
2016-09-10T00:32:59.687Z,23.72
2016-09-10T00:33:32.234Z,23.75
2016-09-10T00:34:04.621Z,23.7
2016-09-10T00:34:36.966Z,23.7
2016-09-10T00:35:09.304Z,23.72
2016-09-10T00:35:41.620Z,23.74
2016-09-10T00:36:13.953Z,23.74
2016-09-10T00:36:46.260Z,23.72
2016-09-10T00:37:18.686Z,23.74
2016-09-10T00:37:51.005Z,23.67
2016-09-10T00:38:23.327Z,23.72
2016-09-10T00:38:55.663Z,23.72
2016-09-10T00:39:27.983Z,23.71
2016-09-10T00:40:00.400Z,23.72
2016-09-10T00:40:33.111Z,23.72
2016-09-10T00:41:05.432Z,23.7
2016-09-10T00:41:37.760Z,23.66
2016-09-10T00:42:10.061Z,23.7
2016-09-10T00:42:42.421Z,23.67
2016-09-10T00:43:14.761Z,23.63
2016-09-10T00:43:47.181Z,23.7
2016-09-10T00:44:19.498Z,23.7
2016-09-10T00:44:51.832Z,23.7
2016-09-10T00:45:24.257Z,23.67
2016-09-10T00:45:56.600Z,23.7
2016-09-10T00:46:28.922Z,23.71
2016-09-10T00:47:02.256Z,23.63
2016-09-10T00:47:36.272Z,23.63
2016-09-10T00:48:08.636Z,23.64
2016-09-10T00:48:41.121Z,23.57
2016-09-10T00:49:13.447Z,23.57
2016-09-10T00:49:45.779Z,23.64
2016-09-10T00:50:18.262Z,23.6
2016-09-10T00:50:50.728Z,23.63
2016-09-10T00:51:23.073Z,23.6
2016-09-10T00:51:55.419Z,23.59
2016-09-10T00:52:27.751Z,23.6
2016-09-10T00:53:00.101Z,23.53
2016-09-10T00:53:32.463Z,23.59
2016-09-10T00:54:04.824Z,23.63
2016-09-10T00:54:37.177Z,23.53
2016-09-10T00:55:09.601Z,23.62
2016-09-10T00:55:42.097Z,23.56
2016-09-10T00:56:14.434Z,23.55
2016-09-10T00:56:46.771Z,23.48
2016-09-10T00:57:19.147Z,23.53
2016-09-10T00:57:51.701Z,23.53
2016-09-10T00:58:24.040Z,23.52
2016-09-10T00:58:56.530Z,23.53
2016-09-10T00:59:28.843Z,23.52
2016-09-10T01:00:01.173Z,23.59
2016-09-10T01:00:34.444Z,23.5
2016-09-10T01:01:06.829Z,23.6
2016-09-10T01:01:39.152Z,23.59
2016-09-10T01:02:11.496Z,23.47
2016-09-10T01:02:43.841Z,23.55
2016-09-10T01:03:16.286Z,23.53
2016-09-10T01:03:48.703Z,23.56
2016-09-10T01:04:21.057Z,23.44
2016-09-10T01:04:53.387Z,23.45
2016-09-10T01:05:25.704Z,23.42
2016-09-10T01:05:58.061Z,23.4
2016-09-10T01:06:30.534Z,23.45
2016-09-10T01:07:02.865Z,23.44
2016-09-10T01:07:35.346Z,23.41
2016-09-10T01:08:07.686Z,23.45
2016-09-10T01:08:40.154Z,23.47
2016-09-10T01:09:12.564Z,23.48
2016-09-10T01:09:44.893Z,23.47
2016-09-10T01:10:17.211Z,23.42
2016-09-10T01:10:49.597Z,23.5
2016-09-10T01:11:22.085Z,23.34
2016-09-10T01:11:54.464Z,23.47
2016-09-10T01:12:26.792Z,23.4
2016-09-10T01:12:59.154Z,23.44
2016-09-10T01:13:31.464Z,23.44
2016-09-10T01:14:03.774Z,23.4
2016-09-10T01:14:36.114Z,23.41
2016-09-10T01:15:08.423Z,23.41
2016-09-10T01:15:40.748Z,23.45
2016-09-10T01:16:13.086Z,23.42
2016-09-10T01:16:45.397Z,23.41
2016-09-10T01:17:17.721Z,23.34
2016-09-10T01:17:50.064Z,23.35
2016-09-10T01:18:22.440Z,23.32
2016-09-10T01:18:54.741Z,23.34
2016-09-10T01:19:27.114Z,23.41
2016-09-10T01:19:59.434Z,23.41
2016-09-10T01:20:32.443Z,23.35
2016-09-10T01:21:04.763Z,23.41
2016-09-10T01:21:37.079Z,23.4
2016-09-10T01:22:09.385Z,23.37
2016-09-10T01:22:41.714Z,23.4
2016-09-10T01:23:14.148Z,23.4
2016-09-10T01:23:46.610Z,23.37
2016-09-10T01:24:18.920Z,23.37
2016-09-10T01:24:51.232Z,23.38
2016-09-10T01:25:23.744Z,23.37
2016-09-10T01:25:56.071Z,23.42
2016-09-10T01:26:28.390Z,23.4
2016-09-10T01:27:00.712Z,23.37
2016-09-10T01:27:33.189Z,23.28
2016-09-10T01:28:05.550Z,23.4
2016-09-10T01:28:37.895Z,23.26
2016-09-10T01:29:10.400Z,23.37
2016-09-10T01:29:42.876Z,23.26
2016-09-10T01:30:15.191Z,23.26
2016-09-10T01:30:47.502Z,23.35
2016-09-10T01:31:19.834Z,23.38
2016-09-10T01:31:52.146Z,23.28
2016-09-10T01:32:24.495Z,23.37
2016-09-10T01:32:56.823Z,23.26
2016-09-10T01:33:29.199Z,23.25
2016-09-10T01:34:01.597Z,23.28
2016-09-10T01:34:34.013Z,23.22
2016-09-10T01:35:06.357Z,23.25
2016-09-10T01:35:38.685Z,23.16
2016-09-10T01:36:11.135Z,23.25
2016-09-10T01:36:43.448Z,23.28
2016-09-10T01:37:15.772Z,23.26
2016-09-10T01:37:48.101Z,23.25
2016-09-10T01:38:20.519Z,23.22
2016-09-10T01:38:52.844Z,23.25
2016-09-10T01:39:25.169Z,23.26
2016-09-10T01:39:57.537Z,23.25
2016-09-10T01:40:29.872Z,23.26
2016-09-10T01:41:02.209Z,23.19
2016-09-10T01:41:34.559Z,23.29
2016-09-10T01:42:06.885Z,23.22
2016-09-10T01:42:39.256Z,23.28
2016-09-10T01:43:11.587Z,23.28
2016-09-10T01:43:43.916Z,23.21
2016-09-10T01:44:16.490Z,23.24
2016-09-10T01:44:48.797Z,23.21
2016-09-10T01:45:21.127Z,23.21
2016-09-10T01:45:53.491Z,23.22
2016-09-10T01:46:25.838Z,23.25
2016-09-10T01:46:58.186Z,23.25
2016-09-10T01:47:30.803Z,23.22
2016-09-10T01:48:03.280Z,23.15
2016-09-10T01:48:35.632Z,23.24
2016-09-10T01:49:07.997Z,23.18
2016-09-10T01:49:40.338Z,23.14
2016-09-10T01:50:12.638Z,23.25
2016-09-10T01:50:45.000Z,23.15
2016-09-10T01:51:17.422Z,23.21
2016-09-10T01:51:49.756Z,23.18
2016-09-10T01:52:22.135Z,23.15
2016-09-10T01:52:54.517Z,23.21
2016-09-10T01:53:26.825Z,23.24
2016-09-10T01:53:59.126Z,23.16
2016-09-10T01:54:31.512Z,23.18
2016-09-10T01:55:03.891Z,23.12
2016-09-10T01:55:36.295Z,23.1
2016-09-10T01:56:08.807Z,23.21
2016-09-10T01:56:41.330Z,23.06
2016-09-10T01:57:13.650Z,23.14
2016-09-10T01:57:46.017Z,23.03
2016-09-10T01:58:18.389Z,23.07
2016-09-10T01:58:50.689Z,23.09
2016-09-10T01:59:23.003Z,23.09
2016-09-10T01:59:55.313Z,23.15
2016-09-10T02:00:27.704Z,23.06
2016-09-10T02:01:00.000Z,23.1
2016-09-10T02:01:32.622Z,23.07
2016-09-10T02:02:04.962Z,23.14
2016-09-10T02:02:37.327Z,23.09
2016-09-10T02:03:09.816Z,23.12
2016-09-10T02:03:42.144Z,23.04
2016-09-10T02:04:14.469Z,23.03
2016-09-10T02:04:46.862Z,23.1
2016-09-10T02:05:19.237Z,23.09
2016-09-10T02:05:51.557Z,23.07
2016-09-10T02:06:23.880Z,23.07
2016-09-10T02:06:56.218Z,23.03
2016-09-10T02:07:28.566Z,23.07
2016-09-10T02:08:00.938Z,23.04
2016-09-10T02:08:33.331Z,23.06
2016-09-10T02:09:05.799Z,23.03
2016-09-10T02:09:38.122Z,23.16
2016-09-10T02:10:10.835Z,23.06
2016-09-10T02:10:43.166Z,23.06
2016-09-10T02:11:15.485Z,22.99
2016-09-10T02:11:47.842Z,23.04
2016-09-10T02:12:20.453Z,23.12
2016-09-10T02:12:52.788Z,23.09
2016-09-10T02:13:25.105Z,23.06
2016-09-10T02:13:57.428Z,23.12
2016-09-10T02:14:29.752Z,23.06
2016-09-10T02:15:02.540Z,23.07
2016-09-10T02:15:34.979Z,23.1
2016-09-10T02:16:07.305Z,23.01
2016-09-10T02:16:39.704Z,23.1
2016-09-10T02:17:12.039Z,23.1
2016-09-10T02:17:44.367Z,23.01
2016-09-10T02:18:16.701Z,23
2016-09-10T02:18:49.024Z,23.06
2016-09-10T02:19:21.378Z,22.97
2016-09-10T02:19:53.712Z,23.04
2016-09-10T02:20:26.064Z,23
2016-09-10T02:20:58.526Z,23.07
2016-09-10T02:21:30.868Z,23.09
2016-09-10T02:22:03.240Z,23.04
2016-09-10T02:22:35.633Z,23.01
2016-09-10T02:23:07.950Z,23.06
2016-09-10T02:23:40.300Z,23.07
2016-09-10T02:24:12.707Z,23.03
2016-09-10T02:24:45.066Z,23.03
2016-09-10T02:25:17.444Z,23.01
2016-09-10T02:25:49.883Z,23.06
2016-09-10T02:26:24.116Z,23.07
2016-09-10T02:26:56.442Z,23
2016-09-10T02:27:28.788Z,23.03
2016-09-10T02:28:01.118Z,23.06
2016-09-10T02:28:33.482Z,23
2016-09-10T02:29:06.169Z,23.06
2016-09-10T02:29:39.126Z,23.01
2016-09-10T02:30:11.497Z,22.99
2016-09-10T02:30:44.067Z,22.99
2016-09-10T02:31:16.386Z,23.01
2016-09-10T02:31:48.771Z,23.01
2016-09-10T02:32:21.231Z,22.99
2016-09-10T02:32:53.559Z,22.97
2016-09-10T02:33:25.880Z,22.91
2016-09-10T02:33:58.191Z,22.97
2016-09-10T02:34:30.569Z,22.94
2016-09-10T02:35:03.051Z,23
2016-09-10T02:35:35.390Z,22.92
2016-09-10T02:36:07.723Z,22.94
2016-09-10T02:36:40.088Z,22.89
2016-09-10T02:37:12.450Z,22.91
2016-09-10T02:37:44.804Z,22.94
2016-09-10T02:38:17.119Z,22.96
2016-09-10T02:38:49.449Z,22.89
2016-09-10T02:39:21.754Z,22.91
2016-09-10T02:39:54.067Z,22.94
2016-09-10T02:40:26.390Z,22.91
2016-09-10T02:40:58.731Z,22.91
2016-09-10T02:41:31.064Z,22.92
2016-09-10T02:42:03.405Z,22.92
2016-09-10T02:42:35.746Z,22.88
2016-09-10T02:43:08.068Z,22.91
2016-09-10T02:43:40.400Z,22.97
2016-09-10T02:44:12.703Z,22.91
2016-09-10T02:44:45.012Z,22.94
2016-09-10T02:45:17.306Z,22.96
2016-09-10T02:45:49.639Z,22.96
2016-09-10T02:46:21.949Z,22.91
2016-09-10T02:46:54.285Z,22.88
2016-09-10T02:47:26.587Z,22.86
2016-09-10T02:47:58.921Z,22.84
2016-09-10T02:48:31.248Z,22.89
2016-09-10T02:49:03.562Z,22.89
2016-09-10T02:49:35.876Z,22.84
2016-09-10T02:50:08.182Z,22.86
2016-09-10T02:50:40.654Z,22.84
2016-09-10T02:51:14.337Z,22.86
2016-09-10T02:51:49.433Z,22.84
2016-09-10T02:52:21.850Z,22.85
2016-09-10T02:52:54.226Z,22.89
2016-09-10T02:53:26.536Z,22.86
2016-09-10T02:53:58.915Z,22.82
2016-09-10T02:54:31.229Z,22.88
2016-09-10T02:55:03.572Z,22.82
2016-09-10T02:55:35.892Z,22.85
2016-09-10T02:56:08.225Z,22.85
2016-09-10T02:56:40.654Z,22.84
2016-09-10T02:57:12.998Z,22.86
2016-09-10T02:57:45.318Z,22.84
2016-09-10T02:58:17.643Z,22.82
2016-09-10T02:58:49.995Z,22.82
2016-09-10T02:59:22.342Z,22.79
2016-09-10T02:59:54.661Z,22.85
2016-09-10T03:00:26.983Z,22.82
2016-09-10T03:00:59.466Z,22.78
2016-09-10T03:01:31.803Z,22.81
2016-09-10T03:02:04.134Z,22.85
2016-09-10T03:02:36.462Z,22.81
2016-09-10T03:03:08.820Z,22.75
2016-09-10T03:03:41.203Z,22.82
2016-09-10T03:04:13.723Z,22.78
2016-09-10T03:04:46.047Z,22.81
2016-09-10T03:05:18.607Z,22.78
2016-09-10T03:05:50.933Z,22.84
2016-09-10T03:06:23.329Z,22.85
2016-09-10T03:06:55.803Z,22.76
2016-09-10T03:07:28.157Z,22.84
2016-09-10T03:08:00.521Z,22.85
2016-09-10T03:08:33.065Z,22.84
2016-09-10T03:09:06.247Z,22.84
2016-09-10T03:09:39.132Z,22.82
2016-09-10T03:10:11.453Z,22.84
2016-09-10T03:10:43.821Z,22.82
2016-09-10T03:11:16.127Z,22.84
2016-09-10T03:11:48.462Z,22.76
2016-09-10T03:12:20.770Z,22.7
2016-09-10T03:12:53.071Z,22.78
2016-09-10T03:13:25.540Z,22.69
2016-09-10T03:13:57.872Z,22.75
2016-09-10T03:14:30.175Z,22.73
2016-09-10T03:15:02.982Z,22.7
2016-09-10T03:15:35.950Z,22.75
2016-09-10T03:16:08.293Z,22.78
2016-09-10T03:16:40.644Z,22.71
2016-09-10T03:17:12.995Z,22.7
2016-09-10T03:17:45.412Z,22.69
2016-09-10T03:18:17.730Z,22.69
2016-09-10T03:18:50.181Z,22.69
2016-09-10T03:19:22.501Z,22.71
2016-09-10T03:19:54.916Z,22.75
2016-09-10T03:20:27.259Z,22.75
2016-09-10T03:20:59.642Z,22.71
2016-09-10T03:21:32.151Z,22.73
2016-09-10T03:22:04.604Z,22.75
2016-09-10T03:22:36.952Z,22.71
2016-09-10T03:23:09.408Z,22.7
2016-09-10T03:23:41.741Z,22.71
2016-09-10T03:24:14.193Z,22.75
2016-09-10T03:24:46.552Z,22.69
2016-09-10T03:25:18.887Z,22.67
2016-09-10T03:25:51.368Z,22.69
2016-09-10T03:26:23.684Z,22.71
2016-09-10T03:26:56.358Z,22.66
2016-09-10T03:27:28.854Z,22.67
2016-09-10T03:28:01.172Z,22.7
2016-09-10T03:28:33.507Z,22.63
2016-09-10T03:29:05.933Z,22.75
2016-09-10T03:29:38.535Z,22.67
2016-09-10T03:30:10.835Z,22.63
2016-09-10T03:30:43.182Z,22.64
2016-09-10T03:31:15.522Z,22.6
2016-09-10T03:31:47.829Z,22.61
2016-09-10T03:32:20.162Z,22.64
2016-09-10T03:32:52.490Z,22.59
2016-09-10T03:33:24.833Z,22.59
2016-09-10T03:33:57.185Z,22.63
2016-09-10T03:34:29.518Z,22.61
2016-09-10T03:35:02.063Z,22.59
2016-09-10T03:35:34.814Z,22.6
2016-09-10T03:36:07.170Z,22.61
2016-09-10T03:36:39.655Z,22.66
2016-09-10T03:37:12.075Z,22.61
2016-09-10T03:37:44.521Z,22.6
2016-09-10T03:38:16.857Z,22.55
2016-09-10T03:38:49.179Z,22.59
2016-09-10T03:39:21.496Z,22.55
2016-09-10T03:39:53.803Z,22.67
2016-09-10T03:40:26.140Z,22.66
2016-09-10T03:40:58.458Z,22.61
2016-09-10T03:41:30.806Z,22.61
2016-09-10T03:42:03.121Z,22.59
2016-09-10T03:42:35.685Z,22.61
2016-09-10T03:43:07.997Z,22.66
2016-09-10T03:43:40.307Z,22.63
2016-09-10T03:44:12.605Z,22.63
2016-09-10T03:44:44.956Z,22.61
2016-09-10T03:45:17.299Z,22.61
2016-09-10T03:45:49.751Z,22.63
2016-09-10T03:46:22.065Z,22.63
2016-09-10T03:46:54.404Z,22.64
2016-09-10T03:47:26.835Z,22.64
2016-09-10T03:47:59.178Z,22.6
2016-09-10T03:48:31.685Z,22.59
2016-09-10T03:49:04.475Z,22.64
2016-09-10T03:49:36.917Z,22.61
2016-09-10T03:50:09.235Z,22.61
2016-09-10T03:50:41.573Z,22.57
2016-09-10T03:51:13.905Z,22.61
2016-09-10T03:51:46.215Z,22.61
2016-09-10T03:52:18.563Z,22.59
2016-09-10T03:52:50.918Z,22.6
2016-09-10T03:53:23.247Z,22.64
2016-09-10T03:53:55.625Z,22.6
2016-09-10T03:54:27.950Z,22.59
2016-09-10T03:55:00.282Z,22.52
2016-09-10T03:55:33.469Z,22.61
2016-09-10T03:56:05.789Z,22.51
2016-09-10T03:56:38.107Z,22.6
2016-09-10T03:57:10.463Z,22.57
2016-09-10T03:57:42.820Z,22.48
2016-09-10T03:58:15.189Z,22.63
2016-09-10T03:58:47.519Z,22.59
2016-09-10T03:59:19.860Z,22.51
2016-09-10T03:59:52.283Z,22.48
2016-09-10T04:00:24.699Z,22.57
2016-09-10T04:00:57.016Z,22.44
2016-09-10T04:01:29.332Z,22.59
2016-09-10T04:02:02.093Z,22.48
2016-09-10T04:02:34.483Z,22.46
2016-09-10T04:03:06.820Z,22.48
2016-09-10T04:03:39.156Z,22.45
2016-09-10T04:04:11.454Z,22.45
2016-09-10T04:04:43.785Z,22.48
2016-09-10T04:05:16.130Z,22.48
2016-09-10T04:05:48.463Z,22.42
2016-09-10T04:06:20.914Z,22.51
2016-09-10T04:06:53.218Z,22.51
2016-09-10T04:07:25.571Z,22.48
2016-09-10T04:07:57.881Z,22.55
2016-09-10T04:08:30.199Z,22.57
2016-09-10T04:09:02.546Z,22.48
2016-09-10T04:09:35.060Z,22.54
2016-09-10T04:10:07.455Z,22.46
2016-09-10T04:10:39.812Z,22.45
2016-09-10T04:11:12.276Z,22.49
2016-09-10T04:11:44.646Z,22.52
2016-09-10T04:12:16.984Z,22.49
2016-09-10T04:12:49.324Z,22.51
2016-09-10T04:13:21.667Z,22.45
2016-09-10T04:13:54.009Z,22.51
2016-09-10T04:14:26.304Z,22.49
2016-09-10T04:14:58.623Z,22.45
2016-09-10T04:15:31.031Z,22.45
2016-09-10T04:16:03.349Z,22.45
2016-09-10T04:16:35.948Z,22.46
2016-09-10T04:17:08.249Z,22.42
2016-09-10T04:17:40.839Z,22.46
2016-09-10T04:18:13.141Z,22.45
2016-09-10T04:18:45.487Z,22.42
2016-09-10T04:19:17.811Z,22.45
2016-09-10T04:19:50.150Z,22.39
2016-09-10T04:20:22.510Z,22.46
2016-09-10T04:20:54.858Z,22.46
2016-09-10T04:21:27.184Z,22.39
2016-09-10T04:21:59.509Z,22.48
2016-09-10T04:22:32.207Z,22.39
2016-09-10T04:23:04.543Z,22.45
2016-09-10T04:23:36.899Z,22.44
2016-09-10T04:24:09.429Z,22.42
2016-09-10T04:24:41.786Z,22.48
2016-09-10T04:25:14.133Z,22.45
2016-09-10T04:25:46.458Z,22.46
2016-09-10T04:26:18.803Z,22.39
2016-09-10T04:26:51.122Z,22.48
2016-09-10T04:27:23.431Z,22.38
2016-09-10T04:27:55.762Z,22.46
2016-09-10T04:28:28.056Z,22.38
2016-09-10T04:29:01.040Z,22.36
2016-09-10T04:29:34.019Z,22.36
2016-09-10T04:30:06.438Z,22.48
2016-09-10T04:30:38.781Z,22.48
2016-09-10T04:31:11.511Z,22.41
2016-09-10T04:31:43.880Z,22.36
2016-09-10T04:32:16.195Z,22.34
2016-09-10T04:32:48.591Z,22.36
2016-09-10T04:33:20.915Z,22.33
2016-09-10T04:33:53.314Z,22.42
2016-09-10T04:34:25.634Z,22.48
2016-09-10T04:34:57.964Z,22.38
2016-09-10T04:35:30.291Z,22.34
2016-09-10T04:36:02.713Z,22.36
2016-09-10T04:36:35.033Z,22.41
2016-09-10T04:37:07.369Z,22.39
2016-09-10T04:37:40.171Z,22.42
2016-09-10T04:38:12.501Z,22.39
2016-09-10T04:38:44.822Z,22.38
2016-09-10T04:39:17.151Z,22.34
2016-09-10T04:39:49.501Z,22.38
2016-09-10T04:40:21.842Z,22.39
2016-09-10T04:40:54.171Z,22.39
2016-09-10T04:41:26.484Z,22.38
2016-09-10T04:41:58.857Z,22.41
2016-09-10T04:42:31.320Z,22.36
2016-09-10T04:43:03.694Z,22.41
2016-09-10T04:43:36.093Z,22.36
2016-09-10T04:44:08.436Z,22.36
2016-09-10T04:44:40.838Z,22.38
2016-09-10T04:45:13.157Z,22.36
2016-09-10T04:45:45.496Z,22.38
2016-09-10T04:46:17.811Z,22.31
2016-09-10T04:46:50.162Z,22.33
2016-09-10T04:47:22.485Z,22.34
2016-09-10T04:47:54.836Z,22.27
2016-09-10T04:48:27.174Z,22.33
2016-09-10T04:48:59.480Z,22.31
2016-09-10T04:49:31.842Z,22.31
2016-09-10T04:50:04.375Z,22.33
2016-09-10T04:50:36.815Z,22.33
2016-09-10T04:51:09.288Z,22.3
2016-09-10T04:51:41.606Z,22.33
2016-09-10T04:52:13.967Z,22.31
2016-09-10T04:52:46.333Z,22.36
2016-09-10T04:53:18.679Z,22.34
2016-09-10T04:53:50.980Z,22.34
2016-09-10T04:54:23.313Z,22.33
2016-09-10T04:54:55.659Z,22.31
2016-09-10T04:55:28.011Z,22.3
2016-09-10T04:56:00.371Z,22.27
2016-09-10T04:56:32.756Z,22.29
2016-09-10T04:57:05.072Z,22.31
2016-09-10T04:57:37.383Z,22.34
2016-09-10T04:58:09.718Z,22.3
2016-09-10T04:58:42.232Z,22.27
2016-09-10T04:59:14.569Z,22.23
2016-09-10T04:59:47.290Z,22.29
2016-09-10T05:00:19.995Z,22.31
2016-09-10T05:00:52.335Z,22.3
2016-09-10T05:01:24.683Z,22.27
2016-09-10T05:01:56.981Z,22.24
2016-09-10T05:02:29.315Z,22.26
2016-09-10T05:03:01.883Z,22.26
2016-09-10T05:03:34.213Z,22.22
2016-09-10T05:04:06.506Z,22.31
2016-09-10T05:04:38.833Z,22.27
2016-09-10T05:05:11.205Z,22.29
2016-09-10T05:05:43.544Z,22.26
2016-09-10T05:06:15.905Z,22.26
2016-09-10T05:06:48.290Z,22.2
2016-09-10T05:07:20.602Z,22.3
2016-09-10T05:07:52.936Z,22.24
2016-09-10T05:08:25.283Z,22.29
2016-09-10T05:08:57.614Z,22.3
2016-09-10T05:09:30.018Z,22.22
2016-09-10T05:10:03.269Z,22.24
2016-09-10T05:10:35.894Z,22.26
2016-09-10T05:11:08.218Z,22.31
2016-09-10T05:11:40.624Z,22.26
2016-09-10T05:12:12.932Z,22.31
2016-09-10T05:12:45.312Z,22.3
2016-09-10T05:13:17.620Z,22.29
2016-09-10T05:13:50.044Z,22.29
2016-09-10T05:14:22.374Z,22.23
2016-09-10T05:14:54.715Z,22.26
2016-09-10T05:15:27.128Z,22.27
2016-09-10T05:15:59.510Z,22.3
2016-09-10T05:16:31.892Z,22.15
2016-09-10T05:17:04.261Z,22.27
2016-09-10T05:17:36.689Z,22.24
2016-09-10T05:18:10.977Z,22.27
2016-09-10T05:18:43.339Z,22.31
2016-09-10T05:19:15.666Z,22.23
2016-09-10T05:19:48.054Z,22.31
2016-09-10T05:20:20.456Z,22.3
2016-09-10T05:20:52.773Z,22.2
2016-09-10T05:21:25.163Z,22.29
2016-09-10T05:21:57.510Z,22.29
2016-09-10T05:22:29.861Z,22.2
2016-09-10T05:23:02.198Z,22.26
2016-09-10T05:23:34.561Z,22.3
2016-09-10T05:24:06.866Z,22.26
2016-09-10T05:24:39.232Z,22.27
2016-09-10T05:25:11.609Z,22.22
2016-09-10T05:25:44.074Z,22.23
2016-09-10T05:26:16.418Z,22.27
2016-09-10T05:26:48.754Z,22.33
2016-09-10T05:27:21.066Z,22.31
2016-09-10T05:27:53.378Z,22.2
2016-09-10T05:28:25.752Z,22.3
2016-09-10T05:28:58.084Z,22.31
2016-09-10T05:29:30.425Z,22.31
2016-09-10T05:30:02.924Z,22.23
2016-09-10T05:30:35.541Z,22.26
2016-09-10T05:31:07.840Z,22.24
2016-09-10T05:31:40.193Z,22.3
2016-09-10T05:32:12.538Z,22.23
2016-09-10T05:32:44.868Z,22.29
2016-09-10T05:33:17.245Z,22.3
2016-09-10T05:33:49.592Z,22.22
2016-09-10T05:34:21.924Z,22.31
2016-09-10T05:34:54.322Z,22.27
2016-09-10T05:35:26.746Z,22.29
2016-09-10T05:35:59.077Z,22.24
2016-09-10T05:36:31.657Z,22.23
2016-09-10T05:37:03.994Z,22.29
2016-09-10T05:37:36.346Z,22.24
2016-09-10T05:38:08.665Z,22.27
2016-09-10T05:38:41.111Z,22.24
2016-09-10T05:39:13.442Z,22.27
2016-09-10T05:39:45.767Z,22.29
2016-09-10T05:40:18.361Z,22.24
2016-09-10T05:40:50.745Z,22.26
2016-09-10T05:41:23.749Z,22.27
2016-09-10T05:41:56.092Z,22.27
2016-09-10T05:42:28.477Z,22.26
2016-09-10T05:43:00.828Z,22.31
2016-09-10T05:43:33.331Z,22.29
2016-09-10T05:44:05.692Z,22.26
2016-09-10T05:44:38.195Z,22.27
2016-09-10T05:45:10.552Z,22.3
2016-09-10T05:45:42.871Z,22.33
2016-09-10T05:46:15.199Z,22.24
2016-09-10T05:46:47.633Z,22.3
2016-09-10T05:47:20.023Z,22.34
2016-09-10T05:47:52.366Z,22.36
2016-09-10T05:48:24.670Z,22.29
2016-09-10T05:48:57.115Z,22.3
2016-09-10T05:49:29.468Z,22.36
2016-09-10T05:50:02.173Z,22.36
2016-09-10T05:50:34.531Z,22.34
2016-09-10T05:51:06.877Z,22.33
2016-09-10T05:51:39.224Z,22.31
2016-09-10T05:52:11.729Z,22.31
2016-09-10T05:52:44.081Z,22.34
2016-09-10T05:53:16.420Z,22.39
2016-09-10T05:53:48.776Z,22.39
2016-09-10T05:54:21.098Z,22.38
2016-09-10T05:54:53.424Z,22.38
2016-09-10T05:55:25.739Z,22.38
2016-09-10T05:55:58.076Z,22.42
2016-09-10T05:56:30.400Z,22.39
2016-09-10T05:57:02.943Z,22.38
2016-09-10T05:57:35.292Z,22.39
2016-09-10T05:58:07.822Z,22.39
2016-09-10T05:58:40.142Z,22.46
2016-09-10T05:59:12.487Z,22.46
2016-09-10T05:59:44.826Z,22.41
2016-09-10T06:00:17.193Z,22.44
2016-09-10T06:00:49.524Z,22.42
2016-09-10T06:01:21.864Z,22.39
2016-09-10T06:01:54.144Z,22.45
2016-09-10T06:02:26.822Z,22.48
2016-09-10T06:03:00.036Z,22.44
2016-09-10T06:03:32.499Z,22.49
2016-09-10T06:04:04.954Z,22.48
2016-09-10T06:04:37.301Z,22.51
2016-09-10T06:05:09.662Z,22.48
2016-09-10T06:05:42.022Z,22.46
2016-09-10T06:06:14.407Z,22.49
2016-09-10T06:06:46.955Z,22.45
2016-09-10T06:07:19.286Z,22.55
2016-09-10T06:07:51.624Z,22.59
2016-09-10T06:08:23.950Z,22.61
2016-09-10T06:08:56.283Z,22.6
2016-09-10T06:09:28.638Z,22.55
2016-09-10T06:10:00.998Z,22.59
2016-09-10T06:10:34.698Z,22.55
2016-09-10T06:11:07.048Z,22.57
2016-09-10T06:11:39.393Z,22.63
2016-09-10T06:12:11.740Z,22.6
2016-09-10T06:12:44.078Z,22.63
2016-09-10T06:13:16.411Z,22.64
2016-09-10T06:13:48.797Z,22.57
2016-09-10T06:14:21.115Z,22.61
2016-09-10T06:14:53.452Z,22.61
2016-09-10T06:15:25.765Z,22.63
2016-09-10T06:15:58.074Z,22.66
2016-09-10T06:16:30.415Z,22.64
2016-09-10T06:17:02.794Z,22.71
2016-09-10T06:17:35.824Z,22.75
2016-09-10T06:18:08.146Z,22.67
2016-09-10T06:18:40.484Z,22.75
2016-09-10T06:19:12.968Z,22.75
2016-09-10T06:19:45.309Z,22.73
2016-09-10T06:20:17.646Z,22.75
2016-09-10T06:20:50.007Z,22.81
2016-09-10T06:21:22.343Z,22.82
2016-09-10T06:21:54.677Z,22.85
2016-09-10T06:22:27.051Z,22.85
2016-09-10T06:22:59.375Z,22.79
2016-09-10T06:23:31.806Z,22.82
2016-09-10T06:24:04.115Z,22.81
2016-09-10T06:24:36.432Z,22.78
2016-09-10T06:25:08.756Z,22.84
2016-09-10T06:25:41.209Z,22.92
2016-09-10T06:26:13.550Z,22.89
2016-09-10T06:26:45.861Z,22.86
2016-09-10T06:27:18.366Z,22.92
2016-09-10T06:27:50.760Z,22.91
2016-09-10T06:28:23.104Z,22.91
2016-09-10T06:28:55.402Z,22.92
2016-09-10T06:29:27.777Z,22.99
2016-09-10T06:30:00.126Z,22.89
2016-09-10T06:30:33.886Z,23.07
2016-09-10T06:31:06.233Z,23.01
2016-09-10T06:31:38.539Z,23.06
2016-09-10T06:32:10.963Z,23.01
2016-09-10T06:32:43.390Z,23.04
2016-09-10T06:33:15.880Z,23.01
2016-09-10T06:33:48.196Z,23.09
2016-09-10T06:34:20.530Z,23.07
2016-09-10T06:34:52.858Z,23.12
2016-09-10T06:35:25.231Z,23.12
2016-09-10T06:35:57.594Z,23.06
2016-09-10T06:36:29.940Z,23.06
2016-09-10T06:37:02.299Z,23.09
2016-09-10T06:37:34.635Z,23.07
2016-09-10T06:38:07.127Z,23.09
2016-09-10T06:38:39.505Z,23.07
2016-09-10T06:39:11.852Z,23.18
2016-09-10T06:39:44.181Z,23.14
2016-09-10T06:40:16.731Z,23.21
2016-09-10T06:40:49.107Z,23.29
2016-09-10T06:41:21.431Z,23.18
2016-09-10T06:41:53.790Z,23.25
2016-09-10T06:42:26.135Z,23.15
2016-09-10T06:42:58.592Z,23.29
2016-09-10T06:43:30.955Z,23.21
2016-09-10T06:44:03.331Z,23.25
2016-09-10T06:44:35.730Z,23.24
2016-09-10T06:45:08.041Z,23.26
2016-09-10T06:45:40.400Z,23.29
2016-09-10T06:46:12.712Z,23.37
2016-09-10T06:46:45.081Z,23.38
2016-09-10T06:47:17.401Z,23.41
2016-09-10T06:47:49.740Z,23.42
2016-09-10T06:48:22.057Z,23.4
2016-09-10T06:48:54.463Z,23.47
2016-09-10T06:49:26.761Z,23.34
2016-09-10T06:49:59.066Z,23.42
2016-09-10T06:50:31.564Z,23.45
2016-09-10T06:51:03.882Z,23.4
2016-09-10T06:51:36.445Z,23.42
2016-09-10T06:52:08.771Z,23.41
2016-09-10T06:52:41.106Z,23.42
2016-09-10T06:53:13.441Z,23.42
2016-09-10T06:53:46.006Z,23.56
2016-09-10T06:54:18.360Z,23.59
2016-09-10T06:54:50.818Z,23.59
2016-09-10T06:55:23.235Z,23.57
2016-09-10T06:56:54.349Z,23.6
2016-09-10T06:57:26.674Z,23.63
2016-09-10T06:57:59.081Z,23.63
2016-09-10T06:58:31.486Z,23.7
2016-09-10T06:59:03.829Z,23.71
2016-09-10T06:59:36.154Z,23.67